THY9HT LFPG-LTFM
Flight info
| Callsign | THY9HT |
|---|---|
| Flight time | 2h 59m |
| Altitude | 41000 |
| Route | LANVI DCT BEGAR DCT TRA DCT GAMSA DCT UMVEG DCT BEDOX DCT NASSY DCT OKLOP DCT ETIDA T390 RILEX |
| Aircraft | A359/H-SDE2E3GHIJ3J4J5LM1ORWXY/LB1D1 |
Departure
| Time | 2026-05-08 15:40 |
|---|---|
| Airport | Charles de Gaulle International Airport (LFPG) |
Arrival
| Time | 2026-05-08 18:39 |
|---|---|
| Airport | İstanbul Airport (LTFM) |
| Time | Latitude | Longitude | Altitude | Speed | Heading |
|---|---|---|---|---|---|
| 2026-05-08 15:04 | 49.01252 | 2.53866 | 354 ft | 0 kts | 86° |
| 2026-05-08 15:26 | 49.01252 | 2.53863 | 354 ft | 1 kts | 86° |
| 2026-05-08 15:26 | 49.01251 | 2.53838 | 354 ft | 3 kts | 79° |
| 2026-05-08 15:27 | 49.01246 | 2.53809 | 354 ft | 3 kts | 69° |
| 2026-05-08 15:27 | 49.01238 | 2.53782 | 354 ft | 3 kts | 54° |
| 2026-05-08 15:27 | 49.01225 | 2.53760 | 354 ft | 3 kts | 30° |
| 2026-05-08 15:27 | 49.01209 | 2.53750 | 362 ft | 3 kts | 352° |
| 2026-05-08 15:28 | 49.01197 | 2.53755 | 358 ft | 1 kts | 315° |
| 2026-05-08 15:28 | 49.01196 | 2.53757 | 354 ft | 0 kts | 314° |
| 2026-05-08 15:31 | 49.01196 | 2.53756 | 354 ft | 0 kts | 314° |
| 2026-05-08 15:31 | 49.01200 | 2.53750 | 354 ft | 2 kts | 315° |
| 2026-05-08 15:32 | 49.01227 | 2.53710 | 364 ft | 9 kts | 320° |
| 2026-05-08 15:32 | 49.01289 | 2.53658 | 354 ft | 11 kts | 337° |
| 2026-05-08 15:32 | 49.01361 | 2.53623 | 363 ft | 11 kts | 348° |
| 2026-05-08 15:32 | 49.01440 | 2.53610 | 354 ft | 12 kts | 0° |
| 2026-05-08 15:33 | 49.01525 | 2.53611 | 362 ft | 12 kts | 356° |
| 2026-05-08 15:33 | 49.01598 | 2.53602 | 354 ft | 8 kts | 354° |
| 2026-05-08 15:33 | 49.01652 | 2.53594 | 362 ft | 9 kts | 355° |
| 2026-05-08 15:33 | 49.01722 | 2.53586 | 359 ft | 11 kts | 353° |
| 2026-05-08 15:34 | 49.01823 | 2.53572 | 359 ft | 17 kts | 349° |
| 2026-05-08 15:34 | 49.01863 | 2.53433 | 362 ft | 16 kts | 266° |
| 2026-05-08 15:34 | 49.01853 | 2.53267 | 360 ft | 16 kts | 265° |
| 2026-05-08 15:34 | 49.01845 | 2.53097 | 362 ft | 16 kts | 264° |
| 2026-05-08 15:35 | 49.01836 | 2.52937 | 360 ft | 14 kts | 265° |
| 2026-05-08 15:35 | 49.01827 | 2.52788 | 355 ft | 14 kts | 265° |
| 2026-05-08 15:35 | 49.01819 | 2.52633 | 355 ft | 15 kts | 266° |
| 2026-05-08 15:35 | 49.01811 | 2.52473 | 357 ft | 12 kts | 265° |
| 2026-05-08 15:36 | 49.01838 | 2.52370 | 355 ft | 11 kts | 327° |
| 2026-05-08 15:36 | 49.01888 | 2.52355 | 355 ft | 11 kts | 356° |
| 2026-05-08 15:36 | 49.02017 | 2.52337 | 355 ft | 16 kts | 355° |
| 2026-05-08 15:36 | 49.02106 | 2.52364 | 359 ft | 13 kts | 38° |
| 2026-05-08 15:37 | 49.02125 | 2.52451 | 356 ft | 0 kts | 83° |
| 2026-05-08 15:39 | 49.02127 | 2.52483 | 362 ft | 19 kts | 85° |
| 2026-05-08 15:39 | 49.02158 | 2.53071 | 357 ft | 90 kts | 86° |
| 2026-05-08 15:39 | 49.02227 | 2.54330 | 356 ft | 146 kts | 85° |
| 2026-05-08 15:40 | 49.02323 | 2.56106 | 427 ft | 182 kts | 85° |
| 2026-05-08 15:40 | 49.02413 | 2.57947 | 1257 ft | 172 kts | 85° |
| 2026-05-08 15:40 | 49.02491 | 2.59770 | 1884 ft | 172 kts | 84° |
| 2026-05-08 15:40 | 49.02590 | 2.61684 | 2177 ft | 192 kts | 83° |
| 2026-05-08 15:41 | 49.02709 | 2.63832 | 2385 ft | 215 kts | 84° |
| 2026-05-08 15:41 | 49.02844 | 2.66227 | 2698 ft | 234 kts | 84° |
| 2026-05-08 15:42 | 49.03156 | 2.71908 | 4187 ft | 242 kts | 85° |
| 2026-05-08 15:42 | 49.03497 | 2.78808 | 6010 ft | 247 kts | 86° |
| 2026-05-08 15:42 | 49.03623 | 2.81433 | 6666 ft | 250 kts | 86° |
| 2026-05-08 15:43 | 49.03749 | 2.84100 | 7311 ft | 253 kts | 86° |
| 2026-05-08 15:43 | 49.03874 | 2.86793 | 7970 ft | 256 kts | 86° |
| 2026-05-08 15:43 | 49.04001 | 2.89516 | 8573 ft | 259 kts | 87° |
| 2026-05-08 15:43 | 49.04135 | 2.92276 | 9187 ft | 262 kts | 87° |
| 2026-05-08 15:44 | 49.04072 | 2.95051 | 9760 ft | 264 kts | 104° |
| 2026-05-08 15:44 | 49.03616 | 2.97784 | 10335 ft | 267 kts | 106° |
| 2026-05-08 15:44 | 49.03141 | 3.00538 | 10894 ft | 271 kts | 106° |
| 2026-05-08 15:44 | 49.02660 | 3.03326 | 11452 ft | 274 kts | 106° |
| 2026-05-08 15:45 | 49.02173 | 3.06154 | 12006 ft | 277 kts | 106° |
| 2026-05-08 15:45 | 49.01686 | 3.09004 | 12549 ft | 281 kts | 106° |
| 2026-05-08 15:45 | 49.01196 | 3.11898 | 13077 ft | 284 kts | 106° |
| 2026-05-08 15:45 | 49.00700 | 3.14825 | 13618 ft | 286 kts | 106° |
| 2026-05-08 15:46 | 49.00199 | 3.17773 | 14152 ft | 289 kts | 107° |
| 2026-05-08 15:46 | 48.99691 | 3.20749 | 14667 ft | 291 kts | 107° |
| 2026-05-08 15:46 | 48.99179 | 3.23746 | 15163 ft | 294 kts | 107° |
| 2026-05-08 15:46 | 48.98658 | 3.26773 | 15647 ft | 297 kts | 107° |
| 2026-05-08 15:47 | 48.98141 | 3.29792 | 16129 ft | 300 kts | 107° |
| 2026-05-08 15:47 | 48.97615 | 3.32872 | 16604 ft | 302 kts | 107° |
| 2026-05-08 15:47 | 48.97083 | 3.35984 | 17066 ft | 305 kts | 107° |
| 2026-05-08 15:47 | 48.96545 | 3.39120 | 17523 ft | 308 kts | 107° |
| 2026-05-08 15:48 | 48.95452 | 3.45473 | 18395 ft | 313 kts | 107° |
| 2026-05-08 15:48 | 48.94895 | 3.48688 | 18827 ft | 315 kts | 107° |
| 2026-05-08 15:48 | 48.94333 | 3.51927 | 19250 ft | 318 kts | 107° |
| 2026-05-08 15:49 | 48.93837 | 3.55215 | 19656 ft | 321 kts | 100° |
| 2026-05-08 15:49 | 48.93614 | 3.58608 | 20062 ft | 324 kts | 96° |
| 2026-05-08 15:49 | 48.93439 | 3.62038 | 20458 ft | 326 kts | 96° |
| 2026-05-08 15:49 | 48.93258 | 3.65492 | 20840 ft | 329 kts | 96° |
| 2026-05-08 15:50 | 48.93073 | 3.68969 | 21226 ft | 330 kts | 96° |
| 2026-05-08 15:50 | 48.92886 | 3.72455 | 21597 ft | 332 kts | 96° |
| 2026-05-08 15:50 | 48.92696 | 3.75971 | 21965 ft | 334 kts | 96° |
| 2026-05-08 15:50 | 48.92504 | 3.79505 | 22332 ft | 337 kts | 96° |
| 2026-05-08 15:51 | 48.92311 | 3.83071 | 22684 ft | 339 kts | 96° |
| 2026-05-08 15:51 | 48.92115 | 3.86647 | 23026 ft | 341 kts | 96° |
| 2026-05-08 15:51 | 48.91918 | 3.90254 | 23366 ft | 343 kts | 96° |
| 2026-05-08 15:51 | 48.91719 | 3.93870 | 23699 ft | 345 kts | 96° |
| 2026-05-08 15:52 | 48.91518 | 3.97460 | 24025 ft | 346 kts | 96° |
| 2026-05-08 15:52 | 48.91312 | 4.01116 | 24348 ft | 348 kts | 96° |
| 2026-05-08 15:52 | 48.91102 | 4.04836 | 24673 ft | 350 kts | 97° |
| 2026-05-08 15:52 | 48.90896 | 4.08479 | 24975 ft | 352 kts | 97° |
| 2026-05-08 15:53 | 48.90687 | 4.12192 | 25261 ft | 354 kts | 96° |
| 2026-05-08 15:53 | 48.90475 | 4.15928 | 25558 ft | 356 kts | 96° |
| 2026-05-08 15:53 | 48.90144 | 4.19665 | 25834 ft | 357 kts | 104° |
| 2026-05-08 15:53 | 48.89501 | 4.23307 | 26100 ft | 358 kts | 111° |
| 2026-05-08 15:54 | 48.88554 | 4.26811 | 26374 ft | 358 kts | 119° |
| 2026-05-08 15:54 | 48.87370 | 4.30148 | 26622 ft | 360 kts | 122° |
| 2026-05-08 15:54 | 48.86153 | 4.33478 | 26883 ft | 362 kts | 122° |
| 2026-05-08 15:54 | 48.84928 | 4.36834 | 27102 ft | 364 kts | 121° |
| 2026-05-08 15:55 | 48.83694 | 4.40208 | 27350 ft | 367 kts | 121° |
| 2026-05-08 15:55 | 48.81211 | 4.46971 | 27818 ft | 372 kts | 121° |
| 2026-05-08 15:55 | 48.79945 | 4.50407 | 28046 ft | 374 kts | 121° |
| 2026-05-08 15:56 | 48.78672 | 4.53859 | 28279 ft | 376 kts | 122° |
| 2026-05-08 15:56 | 48.77392 | 4.57332 | 28489 ft | 379 kts | 121° |
| 2026-05-08 15:56 | 48.76106 | 4.60824 | 28724 ft | 381 kts | 121° |
| 2026-05-08 15:56 | 48.74811 | 4.64332 | 28940 ft | 382 kts | 121° |
| 2026-05-08 15:57 | 48.73506 | 4.67858 | 29149 ft | 385 kts | 122° |
| 2026-05-08 15:57 | 48.72191 | 4.71398 | 29359 ft | 387 kts | 122° |
| 2026-05-08 15:57 | 48.70867 | 4.74958 | 29578 ft | 389 kts | 121° |
| 2026-05-08 15:57 | 48.69539 | 4.78529 | 29795 ft | 390 kts | 121° |
| 2026-05-08 15:58 | 48.68202 | 4.82119 | 30004 ft | 392 kts | 122° |
| 2026-05-08 15:58 | 48.66861 | 4.85711 | 30225 ft | 393 kts | 122° |
| 2026-05-08 15:58 | 48.65515 | 4.89319 | 30443 ft | 394 kts | 122° |
| 2026-05-08 15:58 | 48.64164 | 4.92938 | 30647 ft | 395 kts | 121° |
| 2026-05-08 15:59 | 48.62808 | 4.96559 | 30845 ft | 397 kts | 122° |
| 2026-05-08 15:59 | 48.61444 | 5.00192 | 31034 ft | 398 kts | 122° |
| 2026-05-08 15:59 | 48.60077 | 5.03838 | 31207 ft | 400 kts | 122° |
| 2026-05-08 15:59 | 48.58707 | 5.07494 | 31399 ft | 401 kts | 122° |
| 2026-05-08 16:00 | 48.57330 | 5.11160 | 31591 ft | 402 kts | 122° |
| 2026-05-08 16:00 | 48.55950 | 5.14835 | 31769 ft | 403 kts | 122° |
| 2026-05-08 16:00 | 48.54560 | 5.18526 | 31936 ft | 405 kts | 122° |
| 2026-05-08 16:00 | 48.53183 | 5.22166 | 32123 ft | 406 kts | 122° |
| 2026-05-08 16:01 | 48.51779 | 5.25863 | 32286 ft | 407 kts | 122° |
| 2026-05-08 16:01 | 48.50369 | 5.29571 | 32456 ft | 408 kts | 122° |
| 2026-05-08 16:01 | 48.48952 | 5.33288 | 32617 ft | 409 kts | 122° |
| 2026-05-08 16:01 | 48.47534 | 5.37013 | 32777 ft | 411 kts | 122° |
| 2026-05-08 16:02 | 48.46111 | 5.40750 | 32942 ft | 412 kts | 122° |
| 2026-05-08 16:02 | 48.44683 | 5.44500 | 33076 ft | 414 kts | 122° |
| 2026-05-08 16:02 | 48.43247 | 5.48265 | 33234 ft | 415 kts | 122° |
| 2026-05-08 16:02 | 48.41807 | 5.52036 | 33393 ft | 416 kts | 122° |
| 2026-05-08 16:03 | 48.40361 | 5.55818 | 33556 ft | 417 kts | 122° |
| 2026-05-08 16:03 | 48.38909 | 5.59613 | 33709 ft | 419 kts | 122° |
| 2026-05-08 16:03 | 48.37448 | 5.63418 | 33841 ft | 420 kts | 123° |
| 2026-05-08 16:03 | 48.35981 | 5.67227 | 33982 ft | 422 kts | 122° |
| 2026-05-08 16:04 | 48.34507 | 5.71050 | 34121 ft | 423 kts | 122° |
| 2026-05-08 16:04 | 48.33029 | 5.74879 | 34259 ft | 424 kts | 123° |
| 2026-05-08 16:04 | 48.31602 | 5.78770 | 34387 ft | 427 kts | 117° |
| 2026-05-08 16:04 | 48.30478 | 5.82905 | 34512 ft | 430 kts | 110° |
| 2026-05-08 16:05 | 48.29568 | 5.87185 | 34637 ft | 431 kts | 109° |
| 2026-05-08 16:05 | 48.28645 | 5.91476 | 34761 ft | 432 kts | 110° |
| 2026-05-08 16:05 | 48.26777 | 5.99986 | 35008 ft | 434 kts | 110° |
| 2026-05-08 16:06 | 48.24878 | 6.08612 | 35027 ft | 436 kts | 110° |
| 2026-05-08 16:06 | 48.22979 | 6.17251 | 35026 ft | 436 kts | 110° |
| 2026-05-08 16:07 | 48.21398 | 6.24426 | 35026 ft | 436 kts | 110° |
| 2026-05-08 16:07 | 48.19485 | 6.33053 | 35026 ft | 436 kts | 110° |
| 2026-05-08 16:08 | 48.17565 | 6.41674 | 35030 ft | 436 kts | 110° |
| 2026-05-08 16:08 | 48.15642 | 6.50286 | 35033 ft | 436 kts | 110° |
| 2026-05-08 16:09 | 48.13709 | 6.58891 | 35033 ft | 436 kts | 110° |
| 2026-05-08 16:09 | 48.11772 | 6.67492 | 35036 ft | 436 kts | 110° |
| 2026-05-08 16:10 | 48.09832 | 6.76071 | 35034 ft | 435 kts | 111° |
| 2026-05-08 16:10 | 48.07888 | 6.84624 | 35027 ft | 434 kts | 111° |
| 2026-05-08 16:11 | 48.05945 | 6.93159 | 35024 ft | 433 kts | 111° |
| 2026-05-08 16:11 | 48.04014 | 7.01616 | 35025 ft | 432 kts | 111° |
| 2026-05-08 16:12 | 48.02066 | 7.10099 | 35024 ft | 432 kts | 111° |
| 2026-05-08 16:12 | 48.00108 | 7.18579 | 35024 ft | 432 kts | 111° |
| 2026-05-08 16:13 | 47.98149 | 7.27056 | 35012 ft | 431 kts | 111° |
| 2026-05-08 16:13 | 47.96185 | 7.35518 | 34998 ft | 432 kts | 111° |
| 2026-05-08 16:14 | 47.94209 | 7.43976 | 35013 ft | 432 kts | 111° |
| 2026-05-08 16:14 | 47.92217 | 7.52427 | 35015 ft | 432 kts | 112° |
| 2026-05-08 16:15 | 47.90224 | 7.60863 | 35017 ft | 431 kts | 112° |
| 2026-05-08 16:15 | 47.89360 | 7.64322 | 35019 ft | 430 kts | 114° |
| 2026-05-08 16:16 | 47.87215 | 7.72570 | 35019 ft | 430 kts | 113° |
| 2026-05-08 16:16 | 47.85105 | 7.80896 | 35022 ft | 429 kts | 113° |
| 2026-05-08 16:17 | 47.83008 | 7.89215 | 35020 ft | 429 kts | 113° |
| 2026-05-08 16:17 | 47.80900 | 7.97515 | 35019 ft | 428 kts | 113° |
| 2026-05-08 16:18 | 47.78779 | 8.05790 | 35016 ft | 428 kts | 114° |
| 2026-05-08 16:18 | 47.76648 | 8.14051 | 35018 ft | 428 kts | 114° |
| 2026-05-08 16:19 | 47.74517 | 8.22307 | 35013 ft | 428 kts | 114° |
| 2026-05-08 16:19 | 47.72398 | 8.30498 | 35009 ft | 427 kts | 114° |
| 2026-05-08 16:20 | 47.70250 | 8.38725 | 35007 ft | 427 kts | 114° |
| 2026-05-08 16:20 | 47.68125 | 8.46961 | 35006 ft | 428 kts | 112° |
| 2026-05-08 16:21 | 47.66226 | 8.55329 | 35005 ft | 428 kts | 110° |
| 2026-05-08 16:21 | 47.64408 | 8.63748 | 35008 ft | 428 kts | 111° |
| 2026-05-08 16:22 | 47.62543 | 8.72129 | 35000 ft | 428 kts | 112° |
| 2026-05-08 16:22 | 47.60624 | 8.80478 | 35002 ft | 428 kts | 112° |
| 2026-05-08 16:23 | 47.58693 | 8.88816 | 34994 ft | 428 kts | 112° |
| 2026-05-08 16:23 | 47.56776 | 8.97158 | 35005 ft | 428 kts | 112° |
| 2026-05-08 16:24 | 47.54857 | 9.05497 | 35005 ft | 428 kts | 112° |
| 2026-05-08 16:24 | 47.52930 | 9.13832 | 35009 ft | 428 kts | 112° |
| 2026-05-08 16:25 | 47.50990 | 9.22163 | 35011 ft | 428 kts | 113° |
| 2026-05-08 16:25 | 47.49053 | 9.30418 | 35010 ft | 428 kts | 113° |
| 2026-05-08 16:26 | 47.47102 | 9.38719 | 35011 ft | 427 kts | 113° |
| 2026-05-08 16:26 | 47.45154 | 9.47014 | 35012 ft | 427 kts | 113° |
| 2026-05-08 16:27 | 47.43198 | 9.55295 | 35013 ft | 426 kts | 114° |
| 2026-05-08 16:27 | 47.41273 | 9.63574 | 35011 ft | 428 kts | 109° |
| 2026-05-08 16:28 | 47.40302 | 9.72286 | 35010 ft | 432 kts | 100° |
| 2026-05-08 16:28 | 47.39611 | 9.81103 | 35009 ft | 433 kts | 101° |
| 2026-05-08 16:29 | 47.38901 | 9.89922 | 35011 ft | 432 kts | 101° |
| 2026-05-08 16:29 | 47.38189 | 9.98730 | 35022 ft | 432 kts | 101° |
| 2026-05-08 16:30 | 47.37485 | 10.07528 | 35020 ft | 431 kts | 101° |
| 2026-05-08 16:30 | 47.36778 | 10.16256 | 35022 ft | 431 kts | 101° |
| 2026-05-08 16:31 | 47.36055 | 10.24984 | 35023 ft | 431 kts | 101° |
| 2026-05-08 16:31 | 47.35318 | 10.33763 | 35036 ft | 431 kts | 101° |
| 2026-05-08 16:32 | 47.34575 | 10.42524 | 35040 ft | 431 kts | 101° |
| 2026-05-08 16:32 | 47.33827 | 10.51295 | 35045 ft | 432 kts | 101° |
| 2026-05-08 16:33 | 47.33085 | 10.60071 | 35049 ft | 431 kts | 101° |
| 2026-05-08 16:33 | 47.32325 | 10.68838 | 35042 ft | 431 kts | 102° |
| 2026-05-08 16:34 | 47.31558 | 10.77604 | 35033 ft | 431 kts | 102° |
| 2026-05-08 16:34 | 47.30798 | 10.86307 | 35030 ft | 431 kts | 102° |
| 2026-05-08 16:35 | 47.30018 | 10.95057 | 35026 ft | 431 kts | 102° |
| 2026-05-08 16:35 | 47.29234 | 11.03810 | 35026 ft | 431 kts | 102° |
| 2026-05-08 16:36 | 47.28441 | 11.12564 | 35010 ft | 431 kts | 102° |
| 2026-05-08 16:36 | 47.27643 | 11.21327 | 35006 ft | 431 kts | 102° |
| 2026-05-08 16:37 | 47.26836 | 11.30077 | 35007 ft | 432 kts | 102° |
| 2026-05-08 16:37 | 47.26021 | 11.38833 | 35008 ft | 432 kts | 102° |
| 2026-05-08 16:38 | 47.25198 | 11.47581 | 34995 ft | 432 kts | 102° |
| 2026-05-08 16:38 | 47.24369 | 11.56334 | 35003 ft | 432 kts | 102° |
| 2026-05-08 16:39 | 47.23545 | 11.65088 | 35007 ft | 432 kts | 103° |
| 2026-05-08 16:39 | 47.22705 | 11.73832 | 35005 ft | 432 kts | 103° |
| 2026-05-08 16:40 | 47.21849 | 11.82580 | 35014 ft | 432 kts | 103° |
| 2026-05-08 16:40 | 47.20810 | 11.91193 | 35022 ft | 427 kts | 112° |
| 2026-05-08 16:41 | 47.18990 | 11.99519 | 35023 ft | 425 kts | 113° |
| 2026-05-08 16:42 | 47.16269 | 12.11860 | 35035 ft | 425 kts | 114° |
| 2026-05-08 16:42 | 47.14430 | 12.20123 | 35044 ft | 425 kts | 114° |
| 2026-05-08 16:43 | 47.12584 | 12.28374 | 35044 ft | 425 kts | 114° |
| 2026-05-08 16:43 | 47.10735 | 12.36639 | 35049 ft | 426 kts | 114° |
| 2026-05-08 16:44 | 47.08888 | 12.44891 | 35052 ft | 426 kts | 114° |
| 2026-05-08 16:44 | 47.07027 | 12.53142 | 35048 ft | 425 kts | 114° |
| 2026-05-08 16:45 | 47.05149 | 12.61385 | 35052 ft | 426 kts | 114° |
| 2026-05-08 16:45 | 47.03280 | 12.69575 | 35059 ft | 426 kts | 114° |
| 2026-05-08 16:46 | 47.01405 | 12.77799 | 35055 ft | 425 kts | 114° |
| 2026-05-08 16:46 | 46.99526 | 12.86016 | 35057 ft | 425 kts | 114° |
| 2026-05-08 16:47 | 46.97635 | 12.94237 | 35062 ft | 426 kts | 114° |
| 2026-05-08 16:47 | 46.95739 | 13.02447 | 35058 ft | 425 kts | 114° |
| 2026-05-08 16:48 | 46.93837 | 13.10639 | 35055 ft | 425 kts | 114° |
| 2026-05-08 16:48 | 46.91925 | 13.18833 | 35054 ft | 426 kts | 114° |
| 2026-05-08 16:49 | 46.90012 | 13.27027 | 35043 ft | 426 kts | 114° |
| 2026-05-08 16:49 | 46.88089 | 13.35234 | 35047 ft | 426 kts | 114° |
| 2026-05-08 16:50 | 46.86168 | 13.43360 | 35049 ft | 426 kts | 114° |
| 2026-05-08 16:50 | 46.84241 | 13.51528 | 35046 ft | 425 kts | 114° |
| 2026-05-08 16:51 | 46.82306 | 13.59683 | 35045 ft | 425 kts | 114° |
| 2026-05-08 16:51 | 46.80368 | 13.67825 | 35041 ft | 424 kts | 114° |
| 2026-05-08 16:52 | 46.78425 | 13.75950 | 35040 ft | 424 kts | 114° |
| 2026-05-08 16:52 | 46.76475 | 13.84073 | 35039 ft | 424 kts | 115° |
| 2026-05-08 16:53 | 46.73547 | 13.96238 | 35042 ft | 423 kts | 115° |
| 2026-05-08 16:53 | 46.71591 | 14.04325 | 35037 ft | 423 kts | 115° |
| 2026-05-08 16:54 | 46.69629 | 14.12404 | 35039 ft | 423 kts | 115° |
| 2026-05-08 16:54 | 46.67660 | 14.20475 | 35034 ft | 423 kts | 115° |
| 2026-05-08 16:55 | 46.65689 | 14.28539 | 35030 ft | 423 kts | 115° |
| 2026-05-08 16:55 | 46.63712 | 14.36589 | 35028 ft | 422 kts | 115° |
| 2026-05-08 16:56 | 46.61742 | 14.44584 | 35027 ft | 422 kts | 115° |
| 2026-05-08 16:56 | 46.59753 | 14.52619 | 35027 ft | 422 kts | 115° |
| 2026-05-08 16:57 | 46.57758 | 14.60642 | 35026 ft | 422 kts | 115° |
| 2026-05-08 16:57 | 46.55759 | 14.68658 | 35025 ft | 421 kts | 115° |
| 2026-05-08 16:58 | 46.53766 | 14.76666 | 35022 ft | 421 kts | 115° |
| 2026-05-08 16:58 | 46.51759 | 14.84676 | 35022 ft | 422 kts | 115° |
| 2026-05-08 16:59 | 46.49741 | 14.92685 | 35023 ft | 422 kts | 115° |
| 2026-05-08 16:59 | 46.47717 | 15.00687 | 35025 ft | 422 kts | 115° |
| 2026-05-08 17:00 | 46.46030 | 15.07323 | 35027 ft | 422 kts | 116° |
| 2026-05-08 17:00 | 46.43667 | 15.16610 | 35030 ft | 422 kts | 116° |
| 2026-05-08 17:01 | 46.41964 | 15.23298 | 35030 ft | 421 kts | 115° |
| 2026-05-08 17:01 | 46.39944 | 15.31209 | 35033 ft | 421 kts | 116° |
| 2026-05-08 17:02 | 46.37900 | 15.39155 | 35032 ft | 420 kts | 116° |
| 2026-05-08 17:02 | 46.35852 | 15.47091 | 35030 ft | 420 kts | 116° |
| 2026-05-08 17:03 | 46.33805 | 15.55007 | 35031 ft | 420 kts | 116° |
| 2026-05-08 17:03 | 46.31757 | 15.62931 | 35032 ft | 420 kts | 116° |
| 2026-05-08 17:04 | 46.29711 | 15.70790 | 35030 ft | 419 kts | 116° |
| 2026-05-08 17:04 | 46.27642 | 15.78667 | 35031 ft | 418 kts | 116° |
| 2026-05-08 17:05 | 46.25324 | 15.86323 | 35030 ft | 414 kts | 122° |
| 2026-05-08 17:05 | 46.22746 | 15.93754 | 35033 ft | 414 kts | 122° |
| 2026-05-08 17:06 | 46.20172 | 16.01185 | 35030 ft | 413 kts | 122° |
| 2026-05-08 17:06 | 46.17609 | 16.08547 | 35030 ft | 413 kts | 122° |
| 2026-05-08 17:07 | 46.15025 | 16.15944 | 35029 ft | 413 kts | 122° |
| 2026-05-08 17:07 | 46.12489 | 16.23204 | 35028 ft | 412 kts | 122° |
| 2026-05-08 17:08 | 46.09898 | 16.30578 | 35026 ft | 413 kts | 122° |
| 2026-05-08 17:08 | 46.07300 | 16.37959 | 35026 ft | 412 kts | 122° |
| 2026-05-08 17:09 | 46.04701 | 16.45321 | 35022 ft | 412 kts | 122° |
| 2026-05-08 17:09 | 46.02092 | 16.52668 | 35015 ft | 412 kts | 122° |
| 2026-05-08 17:10 | 45.99484 | 16.60021 | 35013 ft | 412 kts | 122° |
| 2026-05-08 17:10 | 45.96888 | 16.67312 | 35025 ft | 412 kts | 122° |
| 2026-05-08 17:11 | 45.94261 | 16.74661 | 35027 ft | 418 kts | 122° |
| 2026-05-08 17:11 | 45.91555 | 16.82201 | 35027 ft | 429 kts | 122° |
| 2026-05-08 17:12 | 45.88787 | 16.89923 | 35026 ft | 441 kts | 122° |
| 2026-05-08 17:12 | 45.85940 | 16.97853 | 35027 ft | 452 kts | 122° |
| 2026-05-08 17:13 | 45.83038 | 17.05899 | 35027 ft | 455 kts | 122° |
| 2026-05-08 17:13 | 45.80141 | 17.13899 | 35028 ft | 455 kts | 122° |
| 2026-05-08 17:14 | 45.77216 | 17.21932 | 35026 ft | 455 kts | 122° |
| 2026-05-08 17:14 | 45.74284 | 17.29965 | 35028 ft | 455 kts | 122° |
| 2026-05-08 17:15 | 45.71353 | 17.37994 | 35028 ft | 455 kts | 122° |
| 2026-05-08 17:15 | 45.68415 | 17.46019 | 35030 ft | 455 kts | 122° |
| 2026-05-08 17:16 | 45.65466 | 17.54036 | 35032 ft | 456 kts | 122° |
| 2026-05-08 17:16 | 45.62511 | 17.62054 | 35031 ft | 456 kts | 122° |
| 2026-05-08 17:17 | 45.59549 | 17.70067 | 35034 ft | 456 kts | 122° |
| 2026-05-08 17:17 | 45.56582 | 17.78068 | 35035 ft | 456 kts | 122° |
| 2026-05-08 17:18 | 45.53614 | 17.86065 | 35036 ft | 456 kts | 122° |
| 2026-05-08 17:18 | 45.50655 | 17.93995 | 35037 ft | 456 kts | 122° |
| 2026-05-08 17:19 | 45.47668 | 18.01961 | 35035 ft | 456 kts | 122° |
| 2026-05-08 17:19 | 45.44676 | 18.09920 | 35035 ft | 456 kts | 122° |
| 2026-05-08 17:20 | 45.41703 | 18.17901 | 35039 ft | 456 kts | 122° |
| 2026-05-08 17:20 | 45.38760 | 18.25898 | 35039 ft | 457 kts | 122° |
| 2026-05-08 17:21 | 45.35809 | 18.33894 | 35041 ft | 457 kts | 122° |
| 2026-05-08 17:21 | 45.32839 | 18.41885 | 35041 ft | 457 kts | 122° |
| 2026-05-08 17:22 | 45.29865 | 18.49854 | 35041 ft | 456 kts | 122° |
| 2026-05-08 17:22 | 45.26883 | 18.57815 | 35041 ft | 456 kts | 122° |
| 2026-05-08 17:23 | 45.23920 | 18.65699 | 35040 ft | 456 kts | 122° |
| 2026-05-08 17:23 | 45.20926 | 18.73643 | 35039 ft | 456 kts | 122° |
| 2026-05-08 17:24 | 45.17932 | 18.81574 | 35040 ft | 456 kts | 122° |
| 2026-05-08 17:24 | 45.14932 | 18.89506 | 35040 ft | 456 kts | 122° |
| 2026-05-08 17:25 | 45.11926 | 18.97428 | 35041 ft | 456 kts | 122° |
| 2026-05-08 17:25 | 45.08910 | 19.05330 | 35042 ft | 456 kts | 122° |
| 2026-05-08 17:26 | 45.05885 | 19.13228 | 35041 ft | 456 kts | 122° |
| 2026-05-08 17:26 | 45.02858 | 19.21123 | 35041 ft | 456 kts | 122° |
| 2026-05-08 17:27 | 44.99838 | 19.29001 | 35041 ft | 456 kts | 122° |
| 2026-05-08 17:27 | 44.96808 | 19.36866 | 35039 ft | 456 kts | 122° |
| 2026-05-08 17:28 | 44.93790 | 19.44665 | 35037 ft | 456 kts | 122° |
| 2026-05-08 17:28 | 44.90753 | 19.52507 | 35035 ft | 456 kts | 122° |
| 2026-05-08 17:29 | 44.87709 | 19.60349 | 35028 ft | 455 kts | 122° |
| 2026-05-08 17:29 | 44.84666 | 19.68165 | 35026 ft | 455 kts | 122° |
| 2026-05-08 17:30 | 44.81610 | 19.75979 | 35028 ft | 455 kts | 122° |
| 2026-05-08 17:30 | 44.78745 | 19.83281 | 35027 ft | 455 kts | 122° |
| 2026-05-08 17:31 | 44.75679 | 19.91064 | 35027 ft | 454 kts | 122° |
| 2026-05-08 17:31 | 44.72622 | 19.98834 | 35030 ft | 454 kts | 122° |
| 2026-05-08 17:32 | 44.69582 | 20.06544 | 35024 ft | 454 kts | 122° |
| 2026-05-08 17:32 | 44.66507 | 20.14308 | 35026 ft | 454 kts | 122° |
| 2026-05-08 17:33 | 44.63426 | 20.22057 | 35025 ft | 454 kts | 122° |
| 2026-05-08 17:33 | 44.60334 | 20.29792 | 35028 ft | 454 kts | 122° |
| 2026-05-08 17:34 | 44.57243 | 20.37529 | 35028 ft | 454 kts | 122° |
| 2026-05-08 17:34 | 44.54156 | 20.45259 | 35030 ft | 454 kts | 122° |
| 2026-05-08 17:35 | 44.51057 | 20.52965 | 35027 ft | 454 kts | 122° |
| 2026-05-08 17:35 | 44.47971 | 20.60608 | 35026 ft | 454 kts | 122° |
| 2026-05-08 17:36 | 44.44866 | 20.68293 | 35027 ft | 454 kts | 122° |
| 2026-05-08 17:36 | 44.41758 | 20.75979 | 35025 ft | 454 kts | 122° |
| 2026-05-08 17:37 | 44.38644 | 20.83659 | 35027 ft | 454 kts | 123° |
| 2026-05-08 17:37 | 44.35521 | 20.91322 | 35031 ft | 454 kts | 123° |
| 2026-05-08 17:38 | 44.32397 | 20.98985 | 35034 ft | 454 kts | 123° |
| 2026-05-08 17:38 | 44.29267 | 21.06641 | 35032 ft | 454 kts | 123° |
| 2026-05-08 17:39 | 44.26122 | 21.14297 | 35035 ft | 454 kts | 123° |
| 2026-05-08 17:39 | 44.22977 | 21.21941 | 35035 ft | 454 kts | 123° |
| 2026-05-08 17:40 | 44.19824 | 21.29580 | 35041 ft | 455 kts | 123° |
| 2026-05-08 17:40 | 44.16628 | 21.37178 | 35043 ft | 454 kts | 124° |
| 2026-05-08 17:41 | 44.13272 | 21.44603 | 35046 ft | 453 kts | 126° |
| 2026-05-08 17:41 | 44.09863 | 21.51979 | 35047 ft | 453 kts | 125° |
| 2026-05-08 17:42 | 44.06482 | 21.59371 | 35050 ft | 453 kts | 125° |
| 2026-05-08 17:42 | 44.03139 | 21.66753 | 35052 ft | 453 kts | 125° |
| 2026-05-08 17:43 | 43.99780 | 21.74155 | 35052 ft | 453 kts | 125° |
| 2026-05-08 17:43 | 43.96413 | 21.81537 | 35053 ft | 452 kts | 125° |
| 2026-05-08 17:44 | 43.93043 | 21.88904 | 35052 ft | 452 kts | 125° |
| 2026-05-08 17:44 | 43.89667 | 21.96261 | 35050 ft | 452 kts | 125° |
| 2026-05-08 17:45 | 43.86305 | 22.03563 | 35045 ft | 452 kts | 125° |
| 2026-05-08 17:45 | 43.82922 | 22.10898 | 35049 ft | 452 kts | 125° |
| 2026-05-08 17:46 | 43.79531 | 22.18222 | 35050 ft | 452 kts | 125° |
| 2026-05-08 17:46 | 43.76146 | 22.25547 | 35052 ft | 452 kts | 125° |
| 2026-05-08 17:47 | 43.72749 | 22.32847 | 35052 ft | 451 kts | 125° |
| 2026-05-08 17:47 | 43.69924 | 22.38902 | 35048 ft | 451 kts | 126° |
| 2026-05-08 17:48 | 43.66394 | 22.47788 | 35047 ft | 453 kts | 119° |
| 2026-05-08 17:48 | 43.63561 | 22.55557 | 35044 ft | 453 kts | 119° |
| 2026-05-08 17:49 | 43.60710 | 22.63316 | 35044 ft | 453 kts | 120° |
| 2026-05-08 17:49 | 43.57851 | 22.71071 | 35046 ft | 453 kts | 120° |
| 2026-05-08 17:50 | 43.55004 | 22.78757 | 35043 ft | 453 kts | 120° |
| 2026-05-08 17:50 | 43.52134 | 22.86503 | 35044 ft | 454 kts | 120° |
| 2026-05-08 17:51 | 43.49261 | 22.94251 | 35042 ft | 454 kts | 120° |
| 2026-05-08 17:51 | 43.46379 | 23.01985 | 35042 ft | 454 kts | 120° |
| 2026-05-08 17:52 | 43.43487 | 23.09720 | 35044 ft | 454 kts | 120° |
| 2026-05-08 17:53 | 43.39141 | 23.21304 | 35049 ft | 455 kts | 120° |
| 2026-05-08 17:53 | 43.36238 | 23.29037 | 35052 ft | 455 kts | 120° |
| 2026-05-08 17:54 | 43.33356 | 23.36706 | 35051 ft | 455 kts | 120° |
| 2026-05-08 17:54 | 43.30440 | 23.44416 | 35051 ft | 455 kts | 121° |
| 2026-05-08 17:55 | 43.27513 | 23.52118 | 35049 ft | 455 kts | 121° |
| 2026-05-08 17:55 | 43.24585 | 23.59805 | 35047 ft | 455 kts | 121° |
| 2026-05-08 17:56 | 43.21654 | 23.67493 | 35046 ft | 455 kts | 121° |
| 2026-05-08 17:56 | 43.18721 | 23.75184 | 35052 ft | 455 kts | 121° |
| 2026-05-08 17:57 | 43.15784 | 23.82858 | 35054 ft | 455 kts | 121° |
| 2026-05-08 17:57 | 43.12835 | 23.90525 | 35058 ft | 455 kts | 121° |
| 2026-05-08 17:58 | 43.09879 | 23.98189 | 35058 ft | 455 kts | 121° |
| 2026-05-08 17:58 | 43.07424 | 24.04560 | 35052 ft | 456 kts | 121° |
| 2026-05-08 17:59 | 43.04456 | 24.12226 | 35050 ft | 456 kts | 121° |
| 2026-05-08 17:59 | 43.01477 | 24.19885 | 35050 ft | 456 kts | 121° |
| 2026-05-08 18:00 | 42.98495 | 24.27545 | 35050 ft | 457 kts | 121° |
| 2026-05-08 18:00 | 42.94012 | 24.39022 | 35048 ft | 457 kts | 121° |
| 2026-05-08 18:01 | 42.91015 | 24.46676 | 35045 ft | 457 kts | 121° |
| 2026-05-08 18:01 | 42.88008 | 24.54311 | 35044 ft | 457 kts | 121° |
| 2026-05-08 18:02 | 42.85000 | 24.61937 | 35042 ft | 457 kts | 121° |
| 2026-05-08 18:02 | 42.81998 | 24.69557 | 35043 ft | 457 kts | 121° |
| 2026-05-08 18:03 | 42.78985 | 24.77180 | 35043 ft | 457 kts | 121° |
| 2026-05-08 18:03 | 42.75963 | 24.84798 | 35039 ft | 457 kts | 121° |
| 2026-05-08 18:04 | 42.72949 | 24.92356 | 35034 ft | 458 kts | 121° |
| 2026-05-08 18:04 | 42.69906 | 24.99961 | 35031 ft | 458 kts | 121° |
| 2026-05-08 18:05 | 42.66854 | 25.07584 | 35035 ft | 459 kts | 121° |
| 2026-05-08 18:05 | 42.63805 | 25.15198 | 35036 ft | 459 kts | 121° |
| 2026-05-08 18:06 | 42.60759 | 25.22787 | 35061 ft | 457 kts | 121° |
| 2026-05-08 18:06 | 42.57722 | 25.30328 | 35067 ft | 454 kts | 121° |
| 2026-05-08 18:07 | 42.54677 | 25.37837 | 35061 ft | 453 kts | 121° |
| 2026-05-08 18:07 | 42.51645 | 25.45304 | 35062 ft | 452 kts | 121° |
| 2026-05-08 18:08 | 42.48618 | 25.52757 | 35062 ft | 451 kts | 121° |
| 2026-05-08 18:08 | 42.45586 | 25.60192 | 35061 ft | 451 kts | 121° |
| 2026-05-08 18:09 | 42.42579 | 25.67575 | 35056 ft | 450 kts | 121° |
| 2026-05-08 18:09 | 42.39522 | 25.75038 | 35056 ft | 450 kts | 121° |
| 2026-05-08 18:10 | 42.36477 | 25.82436 | 35052 ft | 450 kts | 121° |
| 2026-05-08 18:10 | 42.33459 | 25.89773 | 35054 ft | 450 kts | 121° |
| 2026-05-08 18:11 | 42.30415 | 25.97154 | 35053 ft | 450 kts | 122° |
| 2026-05-08 18:11 | 42.27337 | 26.04572 | 35056 ft | 450 kts | 122° |
| 2026-05-08 18:12 | 42.24288 | 26.11892 | 35061 ft | 451 kts | 122° |
| 2026-05-08 18:12 | 42.21223 | 26.19280 | 35063 ft | 451 kts | 121° |
| 2026-05-08 18:13 | 42.19677 | 26.23000 | 34868 ft | 458 kts | 122° |
| 2026-05-08 18:13 | 42.18112 | 26.26753 | 34330 ft | 461 kts | 122° |
| 2026-05-08 18:13 | 42.16533 | 26.30533 | 33234 ft | 460 kts | 121° |
| 2026-05-08 18:13 | 42.14993 | 26.34226 | 32502 ft | 444 kts | 121° |
| 2026-05-08 18:14 | 42.13501 | 26.37807 | 32299 ft | 433 kts | 121° |
| 2026-05-08 18:14 | 42.12026 | 26.41334 | 31805 ft | 430 kts | 121° |
| 2026-05-08 18:14 | 42.10561 | 26.44817 | 31324 ft | 426 kts | 122° |
| 2026-05-08 18:14 | 42.09106 | 26.48269 | 30843 ft | 422 kts | 122° |
| 2026-05-08 18:15 | 42.07659 | 26.51695 | 30371 ft | 419 kts | 122° |
| 2026-05-08 18:15 | 42.06226 | 26.55088 | 29900 ft | 415 kts | 122° |
| 2026-05-08 18:15 | 42.04811 | 26.58441 | 29450 ft | 411 kts | 122° |
| 2026-05-08 18:15 | 42.03407 | 26.61775 | 29115 ft | 406 kts | 122° |
| 2026-05-08 18:16 | 42.00613 | 26.68394 | 29072 ft | 408 kts | 122° |
| 2026-05-08 18:16 | 41.97813 | 26.74985 | 29071 ft | 410 kts | 122° |
| 2026-05-08 18:17 | 41.94935 | 26.81603 | 29070 ft | 405 kts | 123° |
| 2026-05-08 18:17 | 41.92014 | 26.87999 | 29071 ft | 400 kts | 124° |
| 2026-05-08 18:18 | 41.90550 | 26.91175 | 28798 ft | 398 kts | 124° |
| 2026-05-08 18:18 | 41.89104 | 26.94328 | 28345 ft | 396 kts | 124° |
| 2026-05-08 18:18 | 41.87674 | 26.97463 | 27903 ft | 393 kts | 124° |
| 2026-05-08 18:18 | 41.86254 | 27.00584 | 27443 ft | 391 kts | 124° |
| 2026-05-08 18:19 | 41.84843 | 27.03684 | 26990 ft | 388 kts | 124° |
| 2026-05-08 18:19 | 41.83439 | 27.06765 | 26535 ft | 386 kts | 124° |
| 2026-05-08 18:19 | 41.82011 | 27.09799 | 26069 ft | 382 kts | 129° |
| 2026-05-08 18:19 | 41.80284 | 27.12454 | 25595 ft | 375 kts | 141° |
| 2026-05-08 18:20 | 41.78244 | 27.14584 | 25173 ft | 369 kts | 149° |
| 2026-05-08 18:20 | 41.76127 | 27.16514 | 25045 ft | 369 kts | 149° |
| 2026-05-08 18:20 | 41.74001 | 27.18464 | 25072 ft | 371 kts | 149° |
| 2026-05-08 18:20 | 41.71877 | 27.20419 | 25041 ft | 370 kts | 149° |
| 2026-05-08 18:21 | 41.69889 | 27.22528 | 24632 ft | 371 kts | 136° |
| 2026-05-08 18:21 | 41.68408 | 27.25355 | 24173 ft | 374 kts | 117° |
| 2026-05-08 18:21 | 41.67686 | 27.28700 | 23701 ft | 376 kts | 99° |
| 2026-05-08 18:21 | 41.67390 | 27.32178 | 23201 ft | 376 kts | 98° |
| 2026-05-08 18:22 | 41.67099 | 27.35650 | 22770 ft | 374 kts | 98° |
| 2026-05-08 18:22 | 41.66806 | 27.39084 | 22346 ft | 370 kts | 98° |
| 2026-05-08 18:22 | 41.66511 | 27.42492 | 21936 ft | 367 kts | 98° |
| 2026-05-08 18:22 | 41.66215 | 27.45860 | 21518 ft | 364 kts | 98° |
| 2026-05-08 18:23 | 41.65916 | 27.49210 | 21113 ft | 361 kts | 98° |
| 2026-05-08 18:23 | 41.65619 | 27.52523 | 20708 ft | 357 kts | 98° |
| 2026-05-08 18:23 | 41.65325 | 27.55805 | 20310 ft | 354 kts | 98° |
| 2026-05-08 18:23 | 41.65034 | 27.59057 | 19911 ft | 351 kts | 98° |
| 2026-05-08 18:24 | 41.64748 | 27.62285 | 19514 ft | 347 kts | 98° |
| 2026-05-08 18:24 | 41.64464 | 27.65473 | 19109 ft | 344 kts | 98° |
| 2026-05-08 18:24 | 41.64177 | 27.68630 | 18711 ft | 341 kts | 98° |
| 2026-05-08 18:24 | 41.63893 | 27.71724 | 18322 ft | 338 kts | 98° |
| 2026-05-08 18:25 | 41.63614 | 27.74817 | 17932 ft | 334 kts | 98° |
| 2026-05-08 18:25 | 41.63338 | 27.77863 | 17526 ft | 331 kts | 99° |
| 2026-05-08 18:25 | 41.63059 | 27.80942 | 17109 ft | 328 kts | 99° |
| 2026-05-08 18:25 | 41.62781 | 27.83956 | 16699 ft | 326 kts | 99° |
| 2026-05-08 18:26 | 41.62509 | 27.86910 | 16302 ft | 323 kts | 99° |
| 2026-05-08 18:26 | 41.62233 | 27.89872 | 15882 ft | 320 kts | 99° |
| 2026-05-08 18:26 | 41.61957 | 27.92810 | 15469 ft | 318 kts | 99° |
| 2026-05-08 18:26 | 41.61684 | 27.95729 | 15067 ft | 315 kts | 99° |
| 2026-05-08 18:27 | 41.61417 | 27.98584 | 14663 ft | 313 kts | 99° |
| 2026-05-08 18:27 | 41.61238 | 28.00490 | 14396 ft | 311 kts | 99° |
| 2026-05-08 18:27 | 41.60883 | 28.04310 | 13868 ft | 308 kts | 99° |
| 2026-05-08 18:27 | 41.60619 | 28.07138 | 13466 ft | 306 kts | 99° |
| 2026-05-08 18:28 | 41.60355 | 28.09946 | 13063 ft | 304 kts | 99° |
| 2026-05-08 18:28 | 41.60090 | 28.12736 | 12669 ft | 301 kts | 99° |
| 2026-05-08 18:28 | 41.59829 | 28.15504 | 12275 ft | 299 kts | 99° |
| 2026-05-08 18:28 | 41.59571 | 28.18253 | 11876 ft | 297 kts | 99° |
| 2026-05-08 18:29 | 41.59311 | 28.20987 | 11481 ft | 296 kts | 99° |
| 2026-05-08 18:29 | 41.59052 | 28.23706 | 11086 ft | 294 kts | 99° |
| 2026-05-08 18:29 | 41.58795 | 28.26413 | 10999 ft | 296 kts | 99° |
| 2026-05-08 18:29 | 41.58534 | 28.29154 | 11007 ft | 298 kts | 99° |
| 2026-05-08 18:30 | 41.58270 | 28.31897 | 11007 ft | 298 kts | 99° |
| 2026-05-08 18:30 | 41.58006 | 28.34622 | 10600 ft | 300 kts | 99° |
| 2026-05-08 18:30 | 41.57743 | 28.37351 | 10042 ft | 295 kts | 99° |
| 2026-05-08 18:30 | 41.57479 | 28.40071 | 9439 ft | 294 kts | 99° |
| 2026-05-08 18:31 | 41.57215 | 28.42774 | 8762 ft | 295 kts | 98° |
| 2026-05-08 18:31 | 41.56953 | 28.45473 | 8079 ft | 290 kts | 99° |
| 2026-05-08 18:31 | 41.56908 | 28.48165 | 7495 ft | 291 kts | 80° |
| 2026-05-08 18:31 | 41.57587 | 28.50690 | 6926 ft | 290 kts | 62° |
| 2026-05-08 18:32 | 41.58541 | 28.53081 | 6146 ft | 293 kts | 62° |
| 2026-05-08 18:32 | 41.59493 | 28.55486 | 5367 ft | 292 kts | 63° |
| 2026-05-08 18:32 | 41.60315 | 28.57899 | 5091 ft | 284 kts | 76° |
| 2026-05-08 18:32 | 41.60536 | 28.60517 | 4997 ft | 284 kts | 93° |
| 2026-05-08 18:33 | 41.60515 | 28.63164 | 5007 ft | 285 kts | 92° |
| 2026-05-08 18:33 | 41.60218 | 28.65743 | 4867 ft | 277 kts | 114° |
| 2026-05-08 18:33 | 41.59138 | 28.67780 | 4300 ft | 268 kts | 144° |
| 2026-05-08 18:33 | 41.57572 | 28.69099 | 3884 ft | 266 kts | 153° |
| 2026-05-08 18:34 | 41.55900 | 28.70052 | 3497 ft | 259 kts | 172° |
| 2026-05-08 18:34 | 41.54125 | 28.70207 | 3113 ft | 255 kts | 182° |
| 2026-05-08 18:34 | 41.52382 | 28.70232 | 2996 ft | 244 kts | 182° |
| 2026-05-08 18:34 | 41.50742 | 28.70262 | 3000 ft | 228 kts | 182° |
| 2026-05-08 18:35 | 41.49166 | 28.70294 | 3006 ft | 225 kts | 182° |
| 2026-05-08 18:35 | 41.47600 | 28.70324 | 3008 ft | 225 kts | 182° |
| 2026-05-08 18:35 | 41.46034 | 28.70354 | 3027 ft | 225 kts | 182° |
| 2026-05-08 18:35 | 41.44474 | 28.70386 | 2998 ft | 221 kts | 182° |
| 2026-05-08 18:36 | 41.42986 | 28.70416 | 2772 ft | 213 kts | 182° |
| 2026-05-08 18:36 | 41.41508 | 28.70445 | 2510 ft | 205 kts | 181° |
| 2026-05-08 18:36 | 41.40117 | 28.70473 | 2246 ft | 195 kts | 181° |
| 2026-05-08 18:36 | 41.38790 | 28.70499 | 1991 ft | 187 kts | 180° |
| 2026-05-08 18:37 | 41.37548 | 28.70524 | 1748 ft | 174 kts | 180° |
| 2026-05-08 18:37 | 41.36391 | 28.70547 | 1533 ft | 160 kts | 180° |
| 2026-05-08 18:37 | 41.35313 | 28.70567 | 1322 ft | 150 kts | 179° |
| 2026-05-08 18:37 | 41.34280 | 28.70588 | 1127 ft | 146 kts | 179° |
| 2026-05-08 18:38 | 41.33268 | 28.70608 | 937 ft | 145 kts | 179° |
| 2026-05-08 18:38 | 41.32264 | 28.70628 | 741 ft | 144 kts | 179° |
| 2026-05-08 18:38 | 41.31267 | 28.70651 | 587 ft | 142 kts | 180° |
| 2026-05-08 18:38 | 41.30271 | 28.70676 | 475 ft | 144 kts | 182° |
| 2026-05-08 18:39 | 41.29271 | 28.70693 | 355 ft | 138 kts | 181° |
| 2026-05-08 18:39 | 41.28414 | 28.70703 | 332 ft | 103 kts | 179° |
| 2026-05-08 18:39 | 41.27873 | 28.70713 | 331 ft | 53 kts | 179° |
| 2026-05-08 18:39 | 41.27705 | 28.70766 | 331 ft | 16 kts | 143° |
| 2026-05-08 18:40 | 41.27628 | 28.70819 | 334 ft | 0 kts | 152° |
| 2026-05-08 18:41 | 41.27627 | 28.70820 | 334 ft | 1 kts | 152° |
| 2026-05-08 18:41 | 41.27616 | 28.70828 | 334 ft | 3 kts | 150° |
| 2026-05-08 18:41 | 41.27596 | 28.70843 | 334 ft | 4 kts | 149° |
| 2026-05-08 18:42 | 41.27567 | 28.70867 | 334 ft | 6 kts | 147° |
| 2026-05-08 18:42 | 41.27532 | 28.70895 | 334 ft | 7 kts | 149° |
| 2026-05-08 18:42 | 41.27482 | 28.70935 | 334 ft | 8 kts | 151° |
| 2026-05-08 18:42 | 41.27449 | 28.70994 | 334 ft | 9 kts | 108° |
| 2026-05-08 18:43 | 41.27444 | 28.71081 | 334 ft | 10 kts | 90° |
| 2026-05-08 18:43 | 41.27438 | 28.71166 | 334 ft | 9 kts | 117° |
| 2026-05-08 18:43 | 41.27378 | 28.71195 | 334 ft | 10 kts | 176° |
| 2026-05-08 18:43 | 41.27305 | 28.71197 | 334 ft | 11 kts | 179° |
| 2026-05-08 18:44 | 41.27221 | 28.71199 | 334 ft | 13 kts | 179° |
| 2026-05-08 18:44 | 41.27134 | 28.71200 | 334 ft | 11 kts | 178° |
| 2026-05-08 18:44 | 41.27049 | 28.71202 | 334 ft | 13 kts | 179° |
| 2026-05-08 18:44 | 41.26954 | 28.71205 | 334 ft | 14 kts | 179° |
| 2026-05-08 18:45 | 41.26868 | 28.71208 | 334 ft | 10 kts | 179° |
| 2026-05-08 18:45 | 41.26797 | 28.71210 | 334 ft | 11 kts | 180° |
| 2026-05-08 18:45 | 41.26714 | 28.71211 | 334 ft | 13 kts | 179° |
| 2026-05-08 18:45 | 41.26627 | 28.71212 | 334 ft | 13 kts | 178° |
| 2026-05-08 18:46 | 41.26552 | 28.71216 | 334 ft | 10 kts | 176° |
| 2026-05-08 18:46 | 41.26508 | 28.71275 | 334 ft | 10 kts | 102° |
| 2026-05-08 18:46 | 41.26508 | 28.71374 | 334 ft | 11 kts | 90° |
| 2026-05-08 18:46 | 41.26510 | 28.71487 | 334 ft | 13 kts | 89° |
| 2026-05-08 18:47 | 41.26512 | 28.71622 | 334 ft | 17 kts | 89° |
| 2026-05-08 18:47 | 41.26513 | 28.71748 | 334 ft | 8 kts | 90° |
| 2026-05-08 18:47 | 41.26515 | 28.71831 | 334 ft | 10 kts | 88° |
| 2026-05-08 18:47 | 41.26516 | 28.71909 | 334 ft | 9 kts | 89° |
| 2026-05-08 18:48 | 41.26517 | 28.71994 | 334 ft | 10 kts | 89° |
| 2026-05-08 18:48 | 41.26518 | 28.72093 | 332 ft | 9 kts | 89° |
| 2026-05-08 18:48 | 41.26488 | 28.72167 | 334 ft | 10 kts | 154° |
| 2026-05-08 18:48 | 41.26440 | 28.72175 | 330 ft | 11 kts | 178° |
| 2026-05-08 18:49 | 41.26310 | 28.72178 | 330 ft | 18 kts | 180° |
| 2026-05-08 18:49 | 41.26229 | 28.72177 | 334 ft | 15 kts | 185° |
| 2026-05-08 18:49 | 41.26153 | 28.72162 | 330 ft | 11 kts | 185° |
| 2026-05-08 18:49 | 41.26069 | 28.72148 | 334 ft | 13 kts | 188° |
| 2026-05-08 18:50 | 41.25976 | 28.72132 | 332 ft | 14 kts | 186° |
| 2026-05-08 18:50 | 41.25872 | 28.72113 | 334 ft | 16 kts | 187° |
| 2026-05-08 18:50 | 41.25721 | 28.72092 | 331 ft | 17 kts | 183° |
| 2026-05-08 18:50 | 41.25637 | 28.72091 | 330 ft | 18 kts | 179° |
| 2026-05-08 18:51 | 41.25520 | 28.72094 | 334 ft | 16 kts | 179° |
| 2026-05-08 18:51 | 41.25406 | 28.72100 | 332 ft | 17 kts | 173° |
| 2026-05-08 18:51 | 41.25300 | 28.72170 | 330 ft | 18 kts | 136° |
| 2026-05-08 18:51 | 41.25246 | 28.72315 | 334 ft | 18 kts | 100° |
| 2026-05-08 18:52 | 41.25245 | 28.72459 | 331 ft | 15 kts | 89° |
| 2026-05-08 18:52 | 41.25245 | 28.72578 | 332 ft | 13 kts | 92° |
| 2026-05-08 18:52 | 41.25249 | 28.72707 | 334 ft | 15 kts | 88° |
| 2026-05-08 18:52 | 41.25250 | 28.72846 | 334 ft | 16 kts | 89° |
| 2026-05-08 18:53 | 41.25252 | 28.73001 | 334 ft | 17 kts | 89° |
| 2026-05-08 18:53 | 41.25255 | 28.73153 | 330 ft | 14 kts | 89° |
| 2026-05-08 18:53 | 41.25295 | 28.73256 | 332 ft | 14 kts | 15° |
| 2026-05-08 18:53 | 41.25397 | 28.73257 | 334 ft | 15 kts | 358° |
| 2026-05-08 18:54 | 41.25509 | 28.73254 | 332 ft | 17 kts | 358° |
| 2026-05-08 18:54 | 41.25572 | 28.73256 | 332 ft | 7 kts | 9° |
| 2026-05-08 18:54 | 41.25603 | 28.73284 | 331 ft | 4 kts | 73° |
| 2026-05-08 18:54 | 41.25605 | 28.73296 | 334 ft | 0 kts | 77° |
| 2026-05-08 18:56 | 41.25605 | 28.73298 | 334 ft | 1 kts | 77° |
| 2026-05-08 18:57 | 41.25607 | 28.73312 | 334 ft | 2 kts | 79° |
| 2026-05-08 18:57 | 41.25609 | 28.73347 | 334 ft | 7 kts | 87° |
| 2026-05-08 18:57 | 41.25610 | 28.73419 | 334 ft | 9 kts | 89° |
| 2026-05-08 18:57 | 41.25612 | 28.73505 | 332 ft | 10 kts | 88° |
| 2026-05-08 18:58 | 41.25613 | 28.73579 | 334 ft | 2 kts | 90° |
| 2026-05-08 18:58 | 41.25613 | 28.73594 | 334 ft | 1 kts | 90° |
| 2026-05-08 18:58 | 41.25614 | 28.73608 | 334 ft | 2 kts | 75° |
| 2026-05-08 18:58 | 41.25637 | 28.73640 | 334 ft | 6 kts | 21° |
| 2026-05-08 18:59 | 41.25685 | 28.73638 | 334 ft | 8 kts | 356° |
| 2026-05-08 18:59 | 41.25704 | 28.73636 | 334 ft | 0 kts | 354° |
| 2026-05-08 18:59 | 41.25711 | 28.73635 | 334 ft | 2 kts | 358° |
| 2026-05-08 18:59 | 41.25716 | 28.73635 | 334 ft | 0 kts | 358° |